Time;durP1;ratioP1;P1;durP2;ratioP2;P2;SDS_P1;SDS_P2;PMS_P1;PMS_P2;Temp;Humidity;BMP_temperature;BMP_pressure;BME280_temperature;BME280_humidity;BME280_pressure;Samples;Min_cycle;Max_cycle;Signal;HPM_P1;HPM_P2
2020/12/16 00:00:44;;;;;;;21.48;13.53;;;;;;;0.34;100.00;100133.95;1774310;80;21077;-56
2020/12/16 00:03:14;;;;;;;20.30;13.10;;;;;;;0.35;100.00;100136.09;1774414;80;21089;-57
2020/12/16 00:05:43;;;;;;;22.62;13.60;;;;;;;0.40;100.00;100134.08;1774490;80;21566;-57
2020/12/16 00:08:14;;;;;;;20.88;13.20;;;;;;;0.42;100.00;100137.94;1774433;80;21117;-57
2020/12/16 00:10:44;;;;;;;22.80;13.40;;;;;;;0.41;100.00;100139.63;1774502;80;21584;-56
2020/12/16 00:13:14;;;;;;;23.02;14.15;;;;;;;0.41;100.00;100134.94;1774410;80;21172;-57
2020/12/16 00:15:45;;;;;;;24.77;14.33;;;;;;;0.43;100.00;100135.81;1774347;80;21093;-57
2020/12/16 00:18:20;;;;;;;21.85;12.55;;;;;;;0.44;100.00;100131.14;1774480;80;21141;-58
2020/12/16 00:20:49;;;;;;;23.27;14.25;;;;;;;0.45;100.00;100136.28;1774476;80;21918;-59
2020/12/16 00:23:17;;;;;;;21.90;13.53;;;;;;;0.46;100.00;100129.50;1774432;80;21202;-59
2020/12/16 00:25:46;;;;;;;22.30;13.35;;;;;;;0.49;100.00;100128.27;1774347;80;21077;-59
2020/12/16 00:28:17;;;;;;;24.50;14.28;;;;;;;0.50;100.00;100129.57;1774367;80;21058;-59
2020/12/16 00:30:47;;;;;;;24.20;13.68;;;;;;;0.48;100.00;100129.11;1774534;80;21141;-59
2020/12/16 00:33:18;;;;;;;21.90;13.43;;;;;;;0.50;100.00;100126.15;1774504;80;21055;-58
2020/12/16 00:35:49;;;;;;;23.10;14.13;;;;;;;0.51;100.00;100127.45;1774454;80;21678;-58
2020/12/16 00:38:17;;;;;;;20.35;12.75;;;;;;;0.55;100.00;100125.83;1774406;80;21057;-57
2020/12/16 00:40:49;;;;;;;17.85;11.18;;;;;;;0.58;100.00;100125.88;1774408;80;21125;-56
2020/12/16 00:43:18;;;;;;;19.70;12.43;;;;;;;0.58;100.00;100122.03;1774392;80;21057;-56
2020/12/16 00:45:51;;;;;;;20.15;12.90;;;;;;;0.51;100.00;100125.31;1774441;80;21118;-57
2020/12/16 00:48:22;;;;;;;20.62;12.73;;;;;;;0.47;100.00;100124.83;1774379;80;21274;-56
2020/12/16 00:50:52;;;;;;;20.40;12.73;;;;;;;0.42;100.00;100124.73;1774360;80;21102;-58
2020/12/16 00:53:26;;;;;;;20.37;11.83;;;;;;;0.35;100.00;100130.97;1774461;80;21070;-56
2020/12/16 00:55:57;;;;;;;21.02;12.00;;;;;;;0.32;100.00;100118.14;1774389;80;21061;-57
2020/12/16 00:58:27;;;;;;;22.65;12.93;;;;;;;0.27;100.00;100118.89;1774513;80;21138;-57
2020/12/16 01:00:58;;;;;;;23.40;14.18;;;;;;;0.23;100.00;100122.66;1753506;80;21212;-57
2020/12/16 01:03:29;;;;;;;22.48;12.98;;;;;;;0.19;100.00;100123.00;1774398;80;21495;-56
2020/12/16 01:06:00;;;;;;;20.30;12.00;;;;;;;0.22;100.00;100117.93;1774300;80;21185;-57
2020/12/16 01:08:34;;;;;;;21.60;12.37;;;;;;;0.19;100.00;100106.38;1774360;80;22055;-57
2020/12/16 01:11:04;;;;;;;20.17;11.70;;;;;;;0.15;100.00;100109.72;1774373;80;21117;-57
2020/12/16 01:13:37;;;;;;;16.73;11.12;;;;;;;0.15;100.00;100103.72;1774435;80;21194;-57
2020/12/16 01:16:11;;;;;;;21.07;12.25;;;;;;;0.13;100.00;100101.13;1774279;80;21549;-58
2020/12/16 01:18:42;;;;;;;24.30;13.05;;;;;;;0.13;100.00;100101.55;1774354;80;21121;-57
2020/12/16 01:21:13;;;;;;;18.30;11.95;;;;;;;0.12;100.00;100100.69;1773304;80;21557;-57
2020/12/16 01:23:49;;;;;;;21.15;12.37;;;;;;;0.13;100.00;100104.11;1774379;80;21061;-59
2020/12/16 01:26:20;;;;;;;17.55;11.45;;;;;;;0.14;100.00;100103.27;1774365;80;21368;-58
2020/12/16 01:28:52;;;;;;;18.07;11.57;;;;;;;0.15;100.00;100100.77;1771941;80;21542;-59
2020/12/16 01:31:22;;;;;;;22.10;13.05;;;;;;;0.18;100.00;100104.66;1774494;80;21121;-57
2020/12/16 01:33:56;;;;;;;20.35;12.45;;;;;;;0.19;100.00;100108.94;1774580;80;21117;-57
2020/12/16 01:36:31;;;;;;;26.20;13.55;;;;;;;0.20;100.00;100105.95;1771672;80;21145;-56
2020/12/16 01:39:04;;;;;;;22.07;13.48;;;;;;;0.24;100.00;100108.62;1774512;80;21365;-56
2020/12/16 01:41:33;;;;;;;21.93;12.47;;;;;;;0.32;100.00;100115.16;1774492;80;21168;-58
2020/12/16 01:44:19;;;;;;;24.55;14.10;;;;;;;0.37;100.00;100110.12;1774529;80;21093;-59
2020/12/16 01:46:59;;;;;;;23.67;13.32;;;;;;;0.38;100.00;100107.61;1771893;80;21116;-57
2020/12/16 01:49:34;;;;;;;24.90;13.65;;;;;;;0.42;100.00;100114.50;1771133;80;21109;-59
2020/12/16 01:52:07;;;;;;;21.85;12.25;;;;;;;0.42;100.00;100107.23;1774530;80;21333;-59
2020/12/16 01:54:37;;;;;;;26.45;14.40;;;;;;;0.42;100.00;100100.84;1773265;80;21104;-57
2020/12/16 01:57:14;;;;;;;30.23;15.65;;;;;;;0.40;100.00;100097.41;1772428;80;21481;-59
2020/12/16 01:59:47;;;;;;;26.00;14.50;;;;;;;0.39;100.00;100103.36;1771710;80;21466;-58
2020/12/16 02:02:20;;;;;;;22.80;13.30;;;;;;;0.41;100.00;100102.96;1771793;80;21164;-57
2020/12/16 02:04:52;;;;;;;24.87;14.38;;;;;;;0.43;100.00;100095.75;1774625;80;22059;-58
2020/12/16 02:07:27;;;;;;;21.05;11.85;;;;;;;0.42;100.00;100100.42;1774447;80;21078;-58
2020/12/16 02:09:58;;;;;;;24.70;14.20;;;;;;;0.45;100.00;100101.75;1774465;80;21066;-59
2020/12/16 02:12:34;;;;;;;23.22;14.30;;;;;;;0.45;100.00;100101.75;1774555;80;21046;-57
2020/12/16 02:15:07;;;;;;;25.52;14.78;;;;;;;0.47;100.00;100104.36;1774635;80;21561;-57
2020/12/16 02:17:40;;;;;;;26.37;14.33;;;;;;;0.51;100.00;100107.41;1774715;80;21609;-58
2020/12/16 02:20:17;;;;;;;22.22;14.45;;;;;;;0.54;100.00;100099.39;1729480;80;21073;-58
2020/12/16 02:22:50;;;;;;;27.27;14.15;;;;;;;0.59;100.00;100103.29;1704417;80;21073;-58
2020/12/16 02:25:21;;;;;;;25.88;14.98;;;;;;;0.63;100.00;100103.80;1774459;80;21139;-59
2020/12/16 02:27:58;;;;;;;26.00;14.75;;;;;;;0.67;100.00;100105.56;1771438;80;21502;-61
2020/12/16 02:30:28;;;;;;;27.67;15.03;;;;;;;0.71;100.00;100102.66;1771296;80;21213;-58
2020/12/16 02:33:16;;;;;;;27.58;14.47;;;;;;;0.73;100.00;100102.27;1774415;80;21148;-58
2020/12/16 02:35:49;;;;;;;26.15;14.98;;;;;;;0.73;100.00;100098.00;1771545;80;21109;-58
2020/12/16 02:38:24;;;;;;;26.75;14.90;;;;;;;0.76;100.00;100097.22;1774672;80;28027;-58
2020/12/16 02:40:55;;;;;;;26.70;15.00;;;;;;;0.76;100.00;100099.36;1774467;80;21902;-58
2020/12/16 02:43:31;;;;;;;22.42;14.05;;;;;;;0.78;100.00;100095.12;1774695;80;21818;-58
2020/12/16 02:46:01;;;;;;;25.70;14.93;;;;;;;0.86;100.00;100096.95;1753039;80;21121;-59
2020/12/16 02:48:34;;;;;;;29.52;15.30;;;;;;;0.88;100.00;100095.27;1774530;80;21117;-58
2020/12/16 02:51:06;;;;;;;25.68;14.80;;;;;;;0.89;100.00;100090.59;1774422;80;21081;-59
2020/12/16 02:53:37;;;;;;;27.52;14.43;;;;;;;0.90;100.00;100091.03;1774384;80;21042;-58
2020/12/16 02:56:21;;;;;;;26.27;14.35;;;;;;;0.89;100.00;100090.59;1756319;81;21446;-57
2020/12/16 02:59:02;;;;;;;;;;;;;;;0.88;100.00;100097.41;1850171;76;22603;-59
2020/12/16 03:01:33;;;;;;;25.15;13.00;;;;;;;0.83;100.00;100090.95;1813589;79;20279;-58
2020/12/16 03:04:12;;;;;;;25.05;14.00;;;;;;;0.83;100.00;100095.17;1813797;79;22401;-58
2020/12/16 03:06:55;;;;;;;21.35;12.58;;;;;;;0.83;100.00;100089.67;1813411;79;21072;-58
2020/12/16 03:09:30;;;;;;;26.37;14.28;;;;;;;0.85;100.00;100091.39;1814008;79;21478;-58
2020/12/16 03:12:01;;;;;;;20.85;12.20;;;;;;;0.82;100.00;100086.64;1818242;79;21493;-58
2020/12/16 03:14:36;;;;;;;22.37;12.98;;;;;;;0.83;100.00;100088.39;1815539;79;21147;-58
2020/12/16 03:17:07;;;;;;;21.75;12.98;;;;;;;0.83;100.00;100088.39;1818039;79;21371;-58
2020/12/16 03:19:44;;;;;;;23.20;14.45;;;;;;;0.85;100.00;100083.29;1818109;79;21062;-58
2020/12/16 03:22:15;;;;;;;21.82;13.68;;;;;;;0.83;100.00;100086.22;1818010;79;21053;-58
2020/12/16 03:25:03;;;;;;;27.37;14.05;;;;;;;0.81;100.00;100083.64;1818123;79;21120;-61
2020/12/16 03:27:41;;;;;;;21.62;13.72;;;;;;;0.86;100.00;100081.59;1812683;79;22022;-57
2020/12/16 03:30:22;;;;;;;23.87;14.68;;;;;;;0.90;100.00;100082.07;1812826;79;21211;-57
2020/12/16 03:32:55;;;;;;;26.95;15.38;;;;;;;0.91;100.00;100081.23;1813749;79;21152;-58
2020/12/16 03:35:42;;;;;;;27.02;14.70;;;;;;;0.90;100.00;100083.34;1813420;79;21057;-63
2020/12/16 03:38:14;;;;;;;21.93;13.13;;;;;;;0.89;100.00;100085.05;1813347;79;21156;-57
2020/12/16 03:40:46;;;;;;;19.70;12.98;;;;;;;0.90;100.00;100083.34;1815540;79;21612;-58
2020/12/16 03:43:18;;;;;;;23.38;13.53;;;;;;;0.91;100.00;100082.13;1818086;79;21366;-58
2020/12/16 03:45:49;;;;;;;22.15;13.80;;;;;;;0.95;100.00;100083.02;1818051;79;21113;-57
2020/12/16 03:48:21;;;;;;;23.30;12.85;;;;;;;0.96;100.00;100082.17;1818031;79;21029;-58
2020/12/16 03:50:53;;;;;;;19.45;12.43;;;;;;;0.99;100.00;100081.83;1818077;78;21152;-58
2020/12/16 03:53:24;;;;;;;24.02;13.68;;;;;;;1.02;100.00;100084.84;1818085;79;21089;-58
2020/12/16 03:56:11;;;;;;;20.40;12.78;;;;;;;1.02;100.00;100081.00;1768486;79;21045;-58
2020/12/16 03:59:00;;;;;;;18.80;12.18;;;;;;;1.05;100.00;100081.89;1804166;78;21558;-58
2020/12/16 04:01:38;;;;;;;18.32;12.23;;;;;;;1.10;100.00;100075.16;1803703;79;21045;-58
2020/12/16 04:04:10;;;;;;;18.57;11.53;;;;;;;1.11;100.00;100076.88;1806890;79;21903;-59
2020/12/16 04:06:41;;;;;;;16.05;11.40;;;;;;;1.15;100.00;100078.23;1803684;79;21053;-58
2020/12/16 04:09:15;;;;;;;16.48;10.40;;;;;;;1.14;99.87;100081.63;1806608;78;21190;-58
2020/12/16 04:11:46;;;;;;;16.23;10.72;;;;;;;1.15;99.97;100089.33;1804314;79;21129;-58
2020/12/16 04:14:20;;;;;;;17.75;10.43;;;;;;;1.16;99.97;100089.77;1804279;79;21069;-59
2020/12/16 04:16:56;;;;;;;17.73;11.55;;;;;;;1.19;99.89;100100.05;1806287;79;21192;-58
2020/12/16 04:19:28;;;;;;;16.55;11.12;;;;;;;1.18;99.70;100094.48;1806197;79;21110;-58
2020/12/16 04:22:01;;;;;;;17.98;11.30;;;;;;;1.18;99.68;100080.41;1806402;79;21371;-58
2020/12/16 04:24:34;;;;;;;15.40;10.72;;;;;;;1.16;99.49;100088.48;1803029;79;21128;-58
2020/12/16 04:27:07;;;;;;;17.15;10.50;;;;;;;1.18;99.67;100086.80;1806295;79;21049;-59
2020/12/16 04:29:40;;;;;;;16.93;10.98;;;;;;;1.18;99.61;100085.95;1806280;79;21049;-58
2020/12/16 04:32:15;;;;;;;15.95;10.63;;;;;;;1.20;99.63;100085.54;1806439;79;21106;-58
2020/12/16 04:34:47;;;;;;;19.60;12.07;;;;;;;1.20;99.53;100082.56;1806299;79;23502;-58
2020/12/16 04:37:18;;;;;;;13.25;9.38;;;;;;;1.24;99.56;100080.92;1806197;79;21977;-58
2020/12/16 04:39:49;;;;;;;18.35;11.43;;;;;;;1.26;99.48;100077.54;1805065;79;21049;-57
2020/12/16 04:42:23;;;;;;;16.75;11.48;;;;;;;1.23;99.26;100085.19;1806282;79;21185;-57
2020/12/16 04:44:54;;;;;;;16.05;11.10;;;;;;;1.22;99.52;100081.33;1806389;79;21086;-57
2020/12/16 04:47:29;;;;;;;17.60;11.33;;;;;;;1.24;99.62;100081.78;1806181;79;21206;-57
2020/12/16 04:50:00;;;;;;;15.15;10.72;;;;;;;1.28;99.61;100083.95;1802980;79;21494;-57
2020/12/16 04:52:33;;;;;;;16.73;11.38;;;;;;;1.27;99.38;100086.94;1806212;78;21107;-58
2020/12/16 04:55:06;;;;;;;15.72;10.08;;;;;;;1.27;99.46;100098.47;1800453;79;21105;-57
2020/12/16 04:57:38;;;;;;;17.77;11.83;;;;;;;1.26;99.50;100090.34;1805870;78;21178;-57
2020/12/16 05:00:11;;;;;;;19.55;11.75;;;;;;;1.29;99.60;100092.97;1824115;78;21366;-58
2020/12/16 05:03:10;;;;;;;24.70;14.78;;;;;;;1.33;99.63;100096.42;1819646;78;21079;-57
2020/12/16 05:05:51;;;;;;;23.05;14.05;;;;;;;1.33;99.60;100093.44;1789471;78;21541;-57
2020/12/16 05:08:23;;;;;;;23.92;14.55;;;;;;;1.34;99.51;100097.72;1824030;78;21509;-57
2020/12/16 05:10:53;;;;;;;26.12;15.45;;;;;;;1.33;99.43;100101.13;1824116;78;21136;-57
2020/12/16 05:13:27;;;;;;;29.92;18.73;;;;;;;1.36;99.58;100102.86;1824061;78;21370;-57
2020/12/16 05:16:04;;;;;;;27.87;17.55;;;;;;;1.37;99.51;100105.47;1824073;78;21096;-58
2020/12/16 05:18:32;;;;;;;26.30;16.07;;;;;;;1.39;99.63;100110.19;1823983;78;21096;-57
2020/12/16 05:21:04;;;;;;;27.95;16.67;;;;;;;1.39;99.53;100108.91;1824024;78;21057;-57
2020/12/16 05:23:35;;;;;;;27.42;15.80;;;;;;;1.41;99.45;100114.47;1823999;78;21161;-57
2020/12/16 05:26:09;;;;;;;26.15;15.25;;;;;;;1.43;99.56;100114.06;1824032;78;23522;-57
2020/12/16 05:28:49;;;;;;;22.02;14.30;;;;;;;1.47;99.53;100122.26;1823975;78;21136;-57
2020/12/16 05:31:21;;;;;;;25.88;13.75;;;;;;;1.49;99.51;100120.57;1823998;78;21037;-57
2020/12/16 05:33:52;;;;;;;23.02;13.83;;;;;;;1.47;99.42;100115.43;1823811;78;21025;-57
2020/12/16 05:36:31;;;;;;;25.43;15.03;;;;;;;1.50;99.39;100118.45;1823973;78;21144;-57
2020/12/16 05:39:01;;;;;;;27.60;14.63;;;;;;;1.52;99.31;100119.35;1823673;78;21847;-57
2020/12/16 05:41:35;;;;;;;31.15;14.80;;;;;;;1.54;99.40;100121.09;1823781;78;21167;-57
2020/12/16 05:44:21;;;;;;;22.25;13.72;;;;;;;1.57;99.36;100116.42;1824087;78;21085;-57
2020/12/16 05:46:53;;;;;;;24.85;13.98;;;;;;;1.57;99.30;100116.00;1821745;78;21645;-57
2020/12/16 05:49:29;;;;;;;27.17;14.93;;;;;;;1.58;99.19;100117.71;1822153;78;21117;-57
2020/12/16 05:52:06;;;;;;;26.12;14.50;;;;;;;1.61;99.28;100123.33;1822502;78;21365;-57
2020/12/16 05:54:40;;;;;;;27.42;14.75;;;;;;;1.66;99.25;100124.23;1822245;78;21997;-58
2020/12/16 05:57:25;;;;;;;28.75;15.93;;;;;;;1.68;99.12;100125.56;1822403;78;21597;-58
2020/12/16 06:00:14;;;;;;;29.42;16.82;;;;;;;1.67;99.07;100119.58;1805157;78;21105;-56
2020/12/16 06:02:47;;;;;;;29.60;15.40;;;;;;;1.67;98.93;100124.70;1804232;79;21617;-57
2020/12/16 06:05:17;;;;;;;27.82;15.03;;;;;;;1.69;98.95;100119.17;1783710;78;21358;-57
2020/12/16 06:07:49;;;;;;;29.87;15.63;;;;;;;1.69;98.89;100120.45;1791018;78;21202;-59
2020/12/16 06:10:17;;;;;;;30.20;16.40;;;;;;;1.70;98.88;100118.33;1738002;80;21193;-59
2020/12/16 06:12:46;;;;;;;29.18;15.80;;;;;;;1.72;98.82;100115.36;1739747;82;21175;-58
2020/12/16 06:15:15;;;;;;;26.20;14.95;;;;;;;1.74;98.70;100126.90;1800030;77;21093;-60
2020/12/16 06:17:47;;;;;;;25.08;15.03;;;;;;;1.74;98.58;100129.08;1801632;77;21376;-59
2020/12/16 06:20:17;;;;;;;27.50;15.40;;;;;;;1.73;98.59;100132.45;1801115;79;21116;-59
2020/12/16 06:22:51;;;;;;;28.55;15.93;;;;;;;1.74;98.56;100130.75;1775051;78;21214;-58
2020/12/16 06:25:26;;;;;;;36.30;16.37;;;;;;;1.72;98.49;100134.58;1755977;79;21207;-58
2020/12/16 06:27:54;;;;;;;33.02;16.80;;;;;;;1.73;98.48;100140.56;1745372;80;21186;-59
2020/12/16 06:30:30;;;;;;;32.42;16.87;;;;;;;1.74;98.51;100138.44;1720568;83;21380;-57
2020/12/16 06:33:18;;;;;;;32.88;16.02;;;;;;;1.78;98.59;100138.52;1773719;79;21075;-58
2020/12/16 06:35:47;;;;;;;35.63;17.35;;;;;;;1.83;98.60;100135.61;1756445;81;21174;-58
2020/12/16 06:38:21;;;;;;;33.65;17.65;;;;;;;1.87;98.40;100139.05;1753732;81;21191;-60
2020/12/16 06:40:52;;;;;;;40.58;18.40;;;;;;;1.88;98.29;100137.79;1753744;81;21640;-58
2020/12/16 06:43:37;;;;;;;50.48;22.40;;;;;;;1.89;98.19;100138.65;1730787;81;21385;-58
2020/12/16 06:46:39;;;;;;;50.80;23.85;;;;;;;1.88;98.14;100139.07;1759849;81;21133;-59
2020/12/16 06:49:23;;;;;;;120.60;56.05;;;;;;;1.90;98.13;100139.98;1752000;81;21644;-58
2020/12/16 06:52:03;;;;;;;127.02;63.58;;;;;;;1.93;98.20;100145.56;1750452;82;21152;-57
2020/12/16 06:54:52;;;;;;;60.58;30.88;;;;;;;1.96;98.08;100145.59;1804538;79;21771;-58
2020/12/16 06:57:25;;;;;;;46.18;21.73;;;;;;;1.95;97.79;100144.72;1803850;79;21198;-60
2020/12/16 07:00:02;;;;;;;32.70;17.80;;;;;;;1.93;97.78;100140.01;1816615;78;21148;-58
2020/12/16 07:02:33;;;;;;;29.60;16.40;;;;;;;1.95;97.78;100147.29;1826617;78;21088;-57
2020/12/16 07:05:06;;;;;;;33.70;17.80;;;;;;;1.95;97.70;100137.03;1826561;78;21199;-58
2020/12/16 07:07:57;;;;;;;35.03;17.15;;;;;;;1.94;97.65;100137.88;1823734;78;21119;-57
2020/12/16 07:10:44;;;;;;;32.10;17.70;;;;;;;1.94;97.63;100135.31;1806742;77;21445;-59
2020/12/16 07:13:31;;;;;;;31.25;17.45;;;;;;;1.93;97.52;100132.31;1805521;77;21179;-57
2020/12/16 07:16:12;;;;;;;30.50;17.05;;;;;;;1.92;97.52;100134.44;1808937;78;21066;-59
2020/12/16 07:18:45;;;;;;;37.58;18.70;;;;;;;1.91;97.35;100139.13;1820876;77;21238;-59
2020/12/16 07:21:25;;;;;;;28.47;16.02;;;;;;;1.87;97.45;100142.48;1812485;77;21159;-59
2020/12/16 07:24:09;;;;;;;25.30;15.60;;;;;;;1.89;97.55;100138.65;1814256;77;21185;-59
2020/12/16 07:26:44;;;;;;;33.40;17.52;;;;;;;1.89;97.54;100148.91;1794493;78;21108;-59
2020/12/16 07:29:31;;;;;;;29.70;17.25;;;;;;;1.89;97.55;100139.55;1777292;77;21135;-61
2020/12/16 07:32:14;;;;;;;27.65;17.87;;;;;;;1.93;97.61;100147.70;1815455;78;22184;-59
2020/12/16 07:34:54;;;;;;;25.57;16.45;;;;;;;1.99;97.60;100149.91;1800116;78;21184;-59
2020/12/16 07:37:30;;;;;;;30.55;17.12;;;;;;;2.03;97.51;100143.97;1815262;78;21655;-60
2020/12/16 07:40:10;;;;;;;24.72;14.87;;;;;;;2.05;97.40;100147.44;1812551;78;21195;-59
2020/12/16 07:42:35;;;;;;;30.43;16.95;;;;;;;2.07;97.31;100143.18;1799992;78;21155;-58
2020/12/16 07:45:09;;;;;;;27.00;16.70;;;;;;;2.09;97.29;100142.77;1809799;78;21159;-60
2020/12/16 07:47:37;;;;;;;25.27;16.25;;;;;;;2.12;96.97;100146.68;1810445;78;21144;-58
2020/12/16 07:50:11;;;;;;;29.55;16.62;;;;;;;2.06;96.60;100139.76;1795198;79;21363;-60
2020/12/16 07:52:40;;;;;;;30.92;17.73;;;;;;;2.02;96.67;100135.84;1798994;77;21160;-59
2020/12/16 07:55:07;;;;;;;25.20;16.12;;;;;;;1.97;96.55;100136.22;1812424;78;21711;-60
2020/12/16 07:57:35;;;;;;;28.67;17.42;;;;;;;1.96;96.81;100139.17;1817519;78;21160;-60
2020/12/16 08:00:04;;;;;;;32.15;18.95;;;;;;;1.93;96.78;100141.29;1797512;78;21169;-61
2020/12/16 08:02:38;;;;;;;24.80;15.65;;;;;;;1.93;96.87;100143.85;1715598;82;21411;-59
2020/12/16 08:05:06;;;;;;;28.57;16.62;;;;;;;1.95;96.91;100146.00;1768389;79;21195;-59
2020/12/16 08:07:36;;;;;;;26.90;15.58;;;;;;;1.97;96.97;100154.17;1754423;81;21636;-59
2020/12/16 08:10:08;;;;;;;23.30;15.23;;;;;;;2.00;97.07;100154.20;1734598;82;21211;-59
2020/12/16 08:12:42;;;;;;;26.30;16.73;;;;;;;2.05;96.93;100166.67;1788064;79;21092;-58
2020/12/16 08:15:18;;;;;;;26.65;16.37;;;;;;;2.07;97.02;100161.13;1753014;81;21214;-59
2020/12/16 08:17:51;;;;;;;26.70;16.50;;;;;;;2.11;96.84;100168.02;1760466;80;21164;-58
2020/12/16 08:20:22;;;;;;;27.17;15.68;;;;;;;2.14;96.72;100171.49;1772819;80;21196;-59
2020/12/16 08:22:57;;;;;;;26.85;16.20;;;;;;;2.16;96.70;100166.37;1751042;81;21164;-60
2020/12/16 08:25:25;;;;;;;27.22;16.52;;;;;;;2.20;96.59;100165.59;1725505;82;21196;-58
2020/12/16 08:27:57;;;;;;;27.15;16.52;;;;;;;2.23;96.50;100175.45;1778594;78;21190;-59
2020/12/16 08:30:28;;;;;;;22.40;15.53;;;;;;;2.27;96.41;100166.11;1757616;80;21200;-60
2020/12/16 08:33:03;;;;;;;24.27;15.75;;;;;;;2.30;96.40;100166.56;1727239;81;21181;-59
2020/12/16 08:35:42;;;;;;;;;;;;;;;2.32;96.22;100168.29;1740408;80;21704;-60
2020/12/16 08:38:10;;;;;;;22.27;14.90;;;;;;;2.36;96.21;100164.94;1741089;81;21307;-58
2020/12/16 08:40:47;;;;;;;23.62;14.85;;;;;;;2.39;96.19;100164.95;1744385;82;21428;-57
2020/12/16 08:43:30;;;;;;;23.47;15.05;;;;;;;2.45;96.15;100159.05;1772083;79;21490;-58
2020/12/16 08:46:09;;;;;;;23.62;14.87;;;;;;;2.49;96.03;100166.81;1753395;80;21069;-57
2020/12/16 08:49:02;;;;;;;21.55;14.60;;;;;;;2.51;95.87;100165.54;1795004;79;21415;-58
2020/12/16 08:51:40;;;;;;;22.65;14.98;;;;;;;2.50;95.78;100165.96;1776500;79;21117;-57
2020/12/16 08:54:27;;;;;;;22.17;15.18;;;;;;;2.53;95.64;100159.13;1792034;78;21288;-58
2020/12/16 08:56:57;;;;;;;22.42;14.75;;;;;;;2.55;95.63;100157.44;1779123;78;21160;-58
2020/12/16 08:59:31;;;;;;;27.55;17.30;;;;;;;2.63;95.71;100157.09;1782305;78;21188;-60
2020/12/16 09:02:06;;;;;;;29.85;18.50;;;;;;;2.68;95.50;100151.60;1757924;80;21037;-59
2020/12/16 09:04:40;;;;;;;26.45;17.32;;;;;;;2.73;95.31;100155.09;1749043;82;21195;-59
2020/12/16 09:07:15;;;;;;;23.12;15.28;;;;;;;2.74;95.11;100149.11;1732091;80;21587;-58
2020/12/16 09:09:51;;;;;;;20.37;13.80;;;;;;;2.78;95.17;100145.70;1733598;82;22227;-58
2020/12/16 09:12:20;;;;;;;;;;;;;;;2.87;95.06;100150.96;1795753;78;21137;-58
2020/12/16 09:14:56;;;;;;;19.20;12.98;;;;;;;2.95;94.94;100145.47;1773502;80;20314;-59
2020/12/16 09:17:27;;;;;;;18.10;13.30;;;;;;;3.00;94.49;100147.64;1773728;80;21601;-61
2020/12/16 09:19:56;;;;;;;18.20;13.25;;;;;;;2.99;94.25;100142.06;1773561;80;22329;-59
2020/12/16 09:22:27;;;;;;;21.23;14.38;;;;;;;3.02;94.22;100150.22;1791360;77;21156;-59
2020/12/16 09:24:58;;;;;;;21.62;13.98;;;;;;;3.06;94.14;100148.98;1788211;79;21160;-59
2020/12/16 09:27:26;;;;;;;17.60;13.40;;;;;;;3.09;93.94;100154.56;1750429;80;21160;-58
2020/12/16 09:29:54;;;;;;;16.20;12.43;;;;;;;3.10;93.40;100149.00;1738256;81;21173;-58
2020/12/16 09:32:25;;;;;;;18.20;12.95;;;;;;;3.03;93.03;100151.97;1728548;80;21470;-60
2020/12/16 09:34:54;;;;;;;19.02;13.72;;;;;;;2.97;93.10;100152.76;1744458;82;21133;-58
2020/12/16 09:37:33;;;;;;;20.65;13.13;;;;;;;2.96;93.19;100153.61;1803542;79;21085;-58
2020/12/16 09:40:12;;;;;;;20.02;13.72;;;;;;;2.98;93.10;100151.91;1802804;79;22070;-57
2020/12/16 09:42:57;;;;;;;19.62;14.13;;;;;;;3.00;93.17;100146.35;1804317;78;21114;-59
2020/12/16 09:45:25;;;;;;;19.00;12.55;;;;;;;3.07;93.20;100154.98;1795292;79;21364;-59
2020/12/16 09:47:54;;;;;;;19.73;13.25;;;;;;;3.14;93.16;100148.20;1770093;79;21117;-60
2020/12/16 09:50:30;;;;;;;17.20;13.20;;;;;;;3.24;93.15;100144.42;1734220;81;21117;-59
2020/12/16 09:52:59;;;;;;;18.37;13.08;;;;;;;3.35;93.04;100147.09;1777132;80;21128;-59
2020/12/16 09:55:27;;;;;;;21.35;14.05;;;;;;;3.45;92.71;100148.02;1721562;83;21141;-59
2020/12/16 09:58:03;;;;;;;16.65;12.60;;;;;;;3.49;92.32;100142.92;1792026;79;21356;-59
2020/12/16 10:00:33;;;;;;;18.00;13.13;;;;;;;3.49;91.80;100151.06;1817075;78;21132;-57
2020/12/16 10:03:13;;;;;;;17.95;12.93;;;;;;;3.49;91.86;100150.64;1807770;77;21116;-59
2020/12/16 10:05:41;;;;;;;18.57;13.08;;;;;;;3.54;91.83;100155.79;1791404;80;21542;-59
2020/12/16 10:08:14;;;;;;;18.07;13.15;;;;;;;3.55;90.96;100159.69;1812113;78;21616;-59
2020/12/16 10:10:42;;;;;;;17.00;12.50;;;;;;;3.46;90.57;100156.16;1804653;77;21380;-62
2020/12/16 10:13:13;;;;;;;17.37;13.03;;;;;;;3.36;90.71;100163.38;1807234;77;21201;-61
2020/12/16 10:15:42;;;;;;;18.73;13.80;;;;;;;3.33;91.10;100159.08;1808413;77;21274;-60
2020/12/16 10:18:10;;;;;;;19.07;13.20;;;;;;;3.35;91.41;100163.80;1805554;77;21164;-62
2020/12/16 10:20:38;;;;;;;20.48;13.72;;;;;;;3.41;91.36;100160.42;1801207;77;21193;-60
2020/12/16 10:23:06;;;;;;;18.55;12.82;;;;;;;3.44;91.17;100156.16;1808137;77;21361;-58
2020/12/16 10:25:34;;;;;;;19.55;13.48;;;;;;;3.45;91.05;100155.30;1806015;77;22020;-60
2020/12/16 10:28:01;;;;;;;19.00;13.50;;;;;;;3.49;91.21;100158.34;1810079;77;21577;-60
2020/12/16 10:30:30;;;;;;;19.73;13.40;;;;;;;3.53;91.03;100149.80;1809438;77;21956;-60
2020/12/16 10:33:03;;;;;;;20.23;14.90;;;;;;;3.56;90.52;100164.40;1809114;77;21557;-60
2020/12/16 10:35:35;;;;;;;17.57;12.55;;;;;;;3.57;89.98;100151.55;1808828;77;21243;-60
2020/12/16 10:38:04;;;;;;;19.00;14.68;;;;;;;3.60;90.36;100158.41;1808873;77;21268;-63
2020/12/16 10:40:34;;;;;;;15.83;12.23;;;;;;;3.65;90.10;100146.89;1809790;77;21140;-61
2020/12/16 10:43:03;;;;;;;16.35;12.88;;;;;;;3.70;89.73;100141.33;1808112;77;21138;-62
2020/12/16 10:45:33;;;;;;;18.65;13.98;;;;;;;3.72;89.82;100143.52;1808085;77;21138;-62
2020/12/16 10:48:01;;;;;;;16.62;12.18;;;;;;;3.74;89.42;100140.52;1807164;77;22272;-60
2020/12/16 10:50:32;;;;;;;18.55;14.60;;;;;;;3.77;89.65;100143.09;1803209;77;21167;-60
2020/12/16 10:53:00;;;;;;;15.55;11.70;;;;;;;3.80;89.79;100136.70;1804595;77;21210;-62
2020/12/16 10:55:35;;;;;;;15.65;12.05;;;;;;;3.86;89.67;100140.17;1807525;77;21041;-58
2020/12/16 10:58:04;;;;;;;17.87;13.10;;;;;;;3.89;89.23;100134.17;1809872;77;21209;-58
2020/12/16 11:00:32;;;;;;;16.35;13.08;;;;;;;3.88;89.18;100131.17;1802939;77;21174;-61
2020/12/16 11:03:00;;;;;;;17.85;12.75;;;;;;;3.91;89.08;100129.89;1796244;77;21173;-61
2020/12/16 11:05:28;;;;;;;18.55;13.32;;;;;;;3.91;88.93;100126.03;1796509;77;21587;-61
2020/12/16 11:07:57;;;;;;;16.37;12.25;;;;;;;3.94;89.12;100127.78;1799728;77;21145;-60
2020/12/16 11:10:25;;;;;;;15.05;12.25;;;;;;;3.94;88.87;100126.50;1799976;77;21567;-59
2020/12/16 11:12:52;;;;;;;18.10;13.60;;;;;;;3.92;88.89;100123.03;1798679;77;21369;-59
2020/12/16 11:15:20;;;;;;;15.55;12.95;;;;;;;3.91;88.63;100136.31;1801146;77;21152;-59
2020/12/16 11:17:48;;;;;;;17.10;12.25;;;;;;;3.92;88.92;100129.46;1807652;77;21180;-61
2020/12/16 11:20:16;;;;;;;16.37;12.05;;;;;;;3.95;89.10;100128.21;1803087;77;21607;-58
2020/12/16 11:22:44;;;;;;;15.38;12.25;;;;;;;3.98;89.01;100127.78;1800435;77;21152;-61
2020/12/16 11:25:13;;;;;;;15.43;11.68;;;;;;;4.03;88.92;100131.25;1799231;77;21173;-59
2020/12/16 11:27:41;;;;;;;16.65;12.90;;;;;;;4.06;88.90;100131.69;1803441;77;22225;-58
2020/12/16 11:30:09;;;;;;;19.50;14.03;;;;;;;4.11;88.73;100141.16;1799321;77;21586;-62
2020/12/16 11:32:37;;;;;;;23.30;16.02;;;;;;;4.14;88.78;100137.72;1809207;77;21211;-61
2020/12/16 11:35:05;;;;;;;17.90;13.53;;;;;;;4.14;88.07;100141.16;1800652;77;21184;-62
2020/12/16 11:37:34;;;;;;;16.95;13.10;;;;;;;4.08;88.02;100149.27;1807270;77;21887;-62
2020/12/16 11:40:02;;;;;;;18.35;13.28;;;;;;;4.06;88.35;100144.12;1802924;77;21193;-60
2020/12/16 11:42:31;;;;;;;17.12;13.28;;;;;;;4.09;88.18;100149.30;1800472;77;21113;-62